This is the latest recevied weather packets stored in our database for station/object KB4MOX. If no packets are shown the sender has not sent any weather packets the latest 10 day(s).
| Time | Temp. | Humidity | Pressure | Rain* | Wind** | Luminosity | Snow |
|---|---|---|---|---|---|---|---|
| 1787502475 | 32.78° C | 51% | 1016.2 hPa | 0 mm | - | 708 W/m² | - |
| 1787502174 | 32.78° C | 49% | 1016 hPa | 0 mm | - | 700 W/m² | - |
| 1787501870 | 32.78° C | 50% | 1016.1 hPa | 0 mm | - | 695 W/m² | - |
| 1787501566 | 32.22° C | 55% | 1016.1 hPa | 0 mm | - | 686 W/m² | - |
| 1787501262 | 32.22° C | 54% | 1016.2 hPa | 0 mm | - | 677 W/m² | - |
| 1787500958 | 32.22° C | 52% | 1016 hPa | 0 mm | - | 668 W/m² | - |
| 1787500653 | 32.22° C | 55% | 1016.1 hPa | 0 mm | - | 656 W/m² | - |
| 1787500349 | 31.67° C | 59% | 1016.1 hPa | 0 mm | - | 645 W/m² | - |
| 1787500048 | 32.22° C | 55% | 1016.3 hPa | 0 mm | - | 634 W/m² | - |
| 1787499748 | 31.67° C | 61% | 1016.4 hPa | 0 mm | - | 619 W/m² | - |
| 1787499443 | 31.11° C | 58% | 1016.6 hPa | 0 mm | - | 610 W/m² | - |
| 1787499139 | 31.11° C | 61% | 1016.4 hPa | 0 mm | - | 601 W/m² | - |
| 1787498836 | 31.11° C | 61% | 1016.5 hPa | 0 mm | - | 153 W/m² | - |
| 1787498533 | 30.56° C | 64% | 1016.5 hPa | 0 mm | - | 199 W/m² | - |
| 1787498229 | 30.56° C | 63% | 1016.5 hPa | 0 mm | - | 173 W/m² | - |
| 1787497924 | 30.56° C | 62% | 1016.4 hPa | 0 mm | - | 115 W/m² | - |
| 1787497620 | 30.56° C | 63% | 1016.2 hPa | 0 mm | - | 90 W/m² | - |
| 1787497315 | 30° C | 63% | 1016.4 hPa | 0 mm | - | 89 W/m² | - |
| 1787497014 | 30° C | 66% | 1016.2 hPa | 0 mm | - | 88 W/m² | - |
| 1787496714 | 30° C | 67% | 1016.4 hPa | 0 mm | - | 86 W/m² | - |
| 1787496409 | 29.44° C | 67% | 1016.4 hPa | 0 mm | - | 88 W/m² | - |
| 1787496104 | 29.44° C | 67% | 1016.5 hPa | 0 mm | - | 86 W/m² | - |
| 1787495798 | 28.89° C | 69% | 1016.3 hPa | 0 mm | - | 84 W/m² | - |
| 1787495494 | 28.89° C | 69% | 1016.3 hPa | 0 mm | - | 82 W/m² | - |
| 1787495191 | 28.89° C | 69% | 1016.3 hPa | 0 mm | - | 142 W/m² | - |
* Rain latest hour (hover to see other rain measurements)
** Current wind speed in m/s (hover to see current wind gust speed)